createdAt,value
2023-03-31T00:02:28.307Z,4.80
2023-03-31T00:05:33.385Z,4.50
2023-03-31T00:08:41.738Z,4.85
2023-03-31T00:11:47.497Z,5.05
2023-03-31T00:14:52.842Z,5.25
2023-03-31T00:17:59.679Z,4.45
2023-03-31T00:21:05.895Z,4.58
2023-03-31T00:24:21.956Z,4.75
2023-03-31T00:27:28.443Z,5.10
2023-03-31T00:30:35.278Z,4.90
2023-03-31T00:33:42.869Z,4.47
2023-03-31T00:36:51.727Z,5.80
2023-03-31T00:39:59.570Z,4.65
2023-03-31T00:43:05.382Z,5.20
2023-03-31T00:46:15.833Z,4.50
2023-03-31T00:49:14.416Z,5.67
2023-03-31T00:52:32.488Z,5.28
2023-03-31T00:55:51.913Z,4.95
2023-03-31T01:02:06.050Z,5.37
2023-03-31T01:05:14.345Z,6.20
2023-03-31T01:08:20.186Z,5.30
2023-03-31T01:11:27.769Z,4.97
2023-03-31T01:14:34.194Z,4.62
2023-03-31T01:17:41.910Z,5.47
2023-03-31T01:21:14.971Z,5.55
2023-03-31T01:24:52.883Z,5.42
2023-03-31T01:28:32.401Z,6.15
2023-03-31T01:32:00.965Z,5.17
2023-03-31T01:35:30.087Z,6.08
2023-03-31T01:39:03.907Z,5.97
2023-03-31T01:42:30.805Z,6.12
2023-03-31T01:46:10.540Z,5.33
2023-03-31T01:49:46.668Z,5.10
2023-03-31T01:53:15.925Z,5.70
2023-03-31T01:56:34.598Z,5.65
2023-03-31T01:59:51.922Z,5.28
2023-03-31T02:03:14.497Z,5.10
2023-03-31T02:06:31.726Z,5.80
2023-03-31T02:09:45.901Z,5.03
2023-03-31T02:12:51.907Z,5.15
2023-03-31T02:16:04.674Z,5.90
2023-03-31T02:19:12.808Z,5.58
2023-03-31T02:22:18.792Z,5.47
2023-03-31T02:25:27.741Z,4.90
2023-03-31T02:28:39.083Z,5.10
2023-03-31T02:32:01.788Z,5.33
2023-03-31T02:35:08.833Z,5.35
2023-03-31T02:38:15.146Z,4.70
2023-03-31T02:41:21.835Z,5.40
2023-03-31T02:44:28.083Z,4.90
2023-03-31T02:47:34.579Z,5.37
2023-03-31T02:50:40.397Z,4.97
2023-03-31T02:54:24.708Z,5.53
2023-03-31T02:58:13.987Z,5.87
2023-03-31T03:02:00.907Z,5.75
2023-03-31T03:05:35.860Z,4.58
2023-03-31T03:09:16.141Z,5.75
2023-03-31T03:12:19.145Z,4.92
2023-03-31T03:15:45.840Z,5.08
2023-03-31T03:18:38.935Z,5.47
2023-03-31T03:21:44.531Z,4.47
2023-03-31T03:24:50.728Z,5.40
2023-03-31T03:27:56.576Z,5.53
2023-03-31T03:31:02.380Z,5.15
2023-03-31T03:34:03.406Z,5.97
2023-03-31T03:37:09.013Z,6.20
2023-03-31T03:40:15.204Z,6.10
2023-03-31T03:43:21.038Z,5.28
2023-03-31T03:46:26.400Z,4.62
2023-03-31T03:49:31.955Z,5.50
2023-03-31T03:52:37.794Z,5.42
2023-03-31T03:55:44.423Z,4.67
2023-03-31T03:58:51.862Z,5.17
2023-03-31T04:01:57.288Z,5.72
2023-03-31T04:05:05.178Z,6.20
2023-03-31T04:08:12.454Z,6.10
2023-03-31T04:11:19.094Z,6.03
2023-03-31T04:14:24.952Z,5.50
2023-03-31T04:17:33.471Z,5.80
2023-03-31T04:20:41.377Z,5.35
2023-03-31T04:23:53.251Z,4.72
2023-03-31T04:26:59.380Z,6.62
2023-03-31T04:30:05.444Z,5.60
2023-03-31T04:33:13.062Z,5.70
2023-03-31T04:36:26.180Z,5.83
2023-03-31T04:39:38.245Z,5.53
2023-03-31T04:42:43.365Z,5.75
2023-03-31T04:45:49.434Z,4.92
2023-03-31T04:48:56.886Z,5.28
2023-03-31T04:52:02.356Z,5.70
2023-03-31T04:55:09.228Z,5.67
2023-03-31T04:58:15.470Z,5.70
2023-03-31T05:01:23.486Z,5.25
2023-03-31T05:04:29.644Z,5.33
2023-03-31T05:07:35.053Z,4.80
2023-03-31T05:10:41.096Z,5.17
2023-03-31T05:13:47.277Z,4.90
2023-03-31T05:16:53.807Z,5.15
2023-03-31T05:20:00.041Z,5.85
2023-03-31T05:23:05.046Z,5.28
2023-03-31T05:26:10.628Z,5.20
2023-03-31T05:29:16.046Z,5.62
2023-03-31T05:32:21.297Z,4.90
2023-03-31T05:35:26.901Z,4.75
2023-03-31T05:38:32.098Z,4.97
2023-03-31T05:41:38.374Z,5.15
2023-03-31T05:44:43.342Z,5.53
2023-03-31T05:47:49.785Z,5.22
2023-03-31T05:50:55.374Z,5.67
2023-03-31T05:54:01.260Z,5.08
2023-03-31T05:57:07.895Z,4.83
2023-03-31T06:00:16.222Z,4.50
2023-03-31T06:03:21.169Z,3.72
2023-03-31T06:06:26.822Z,4.62
2023-03-31T06:09:33.173Z,4.33
2023-03-31T06:12:39.675Z,4.12
2023-03-31T06:15:46.227Z,3.45
2023-03-31T06:18:52.739Z,3.80
2023-03-31T06:21:58.902Z,3.50
2023-03-31T06:25:05.655Z,3.12
2023-03-31T06:28:06.531Z,3.35
2023-03-31T06:31:20.194Z,3.35
2023-03-31T06:34:25.666Z,3.72
2023-03-31T06:37:31.379Z,3.67
2023-03-31T06:40:35.989Z,3.90
2023-03-31T06:43:41.561Z,2.95
2023-03-31T06:46:48.864Z,3.65
2023-03-31T06:49:55.353Z,3.72
2023-03-31T06:53:02.272Z,3.30
2023-03-31T06:56:08.594Z,3.30
2023-03-31T06:59:15.009Z,3.52
2023-03-31T07:02:20.923Z,3.50
2023-03-31T07:05:29.070Z,3.60
2023-03-31T07:08:35.284Z,4.15
2023-03-31T07:11:34.649Z,3.67
2023-03-31T07:14:22.989Z,3.15
2023-03-31T07:17:15.428Z,3.12
2023-03-31T07:20:29.099Z,3.25
2023-03-31T07:23:35.305Z,2.60
2023-03-31T07:26:41.218Z,2.90
2023-03-31T07:29:46.880Z,2.75
2023-03-31T07:32:53.089Z,2.35
2023-03-31T07:36:10.692Z,2.33
2023-03-31T07:39:08.728Z,2.62
2023-03-31T07:42:15.190Z,3.12
2023-03-31T07:45:22.842Z,2.85
2023-03-31T07:48:28.853Z,2.58
2023-03-31T07:51:37.330Z,2.70
2023-03-31T07:54:43.314Z,2.67
2023-03-31T07:57:50.211Z,3.12
2023-03-31T08:00:50.018Z,3.20
2023-03-31T08:07:01.893Z,3.45
2023-03-31T08:10:08.269Z,3.20
2023-03-31T08:13:15.245Z,3.20
2023-03-31T08:16:21.002Z,2.95
2023-03-31T08:19:27.223Z,3.30
2023-03-31T08:22:32.372Z,3.72
2023-03-31T08:25:38.533Z,3.95
2023-03-31T08:28:44.788Z,3.77
2023-03-31T08:31:52.206Z,4.60
2023-03-31T08:34:58.558Z,5.50
2023-03-31T08:38:04.865Z,4.72
2023-03-31T08:41:15.650Z,5.00
2023-03-31T08:44:33.270Z,5.70
2023-03-31T08:47:39.965Z,5.70
2023-03-31T08:50:47.346Z,5.80
2023-03-31T08:54:05.609Z,5.30
2023-03-31T08:57:12.594Z,5.25
2023-03-31T09:00:20.256Z,5.55
2023-03-31T09:03:48.123Z,3.92
2023-03-31T09:07:03.846Z,4.80
2023-03-31T09:10:22.973Z,4.87
2023-03-31T09:13:36.984Z,4.20
2023-03-31T09:16:52.433Z,4.62
2023-03-31T09:20:35.513Z,4.80
2023-03-31T09:23:46.427Z,5.95
2023-03-31T09:27:02.734Z,5.92
2023-03-31T09:30:15.812Z,5.72
2023-03-31T09:33:38.872Z,6.25
2023-03-31T09:36:49.568Z,7.87
2023-03-31T09:39:55.742Z,8.45
2023-03-31T09:43:02.687Z,6.17
2023-03-31T09:46:09.580Z,5.72
2023-03-31T09:49:29.209Z,3.98
2023-03-31T09:52:46.877Z,5.03
2023-03-31T09:56:06.332Z,3.80
2023-03-31T09:59:17.047Z,3.87
2023-03-31T10:02:52.109Z,4.35
2023-03-31T10:06:10.133Z,3.92
2023-03-31T10:09:22.275Z,4.28
2023-03-31T10:12:37.915Z,3.35
2023-03-31T10:15:45.021Z,4.20
2023-03-31T10:18:54.456Z,4.25
2023-03-31T10:22:02.475Z,4.00
2023-03-31T10:25:08.809Z,3.60
2023-03-31T10:28:08.908Z,3.42
2023-03-31T10:31:15.677Z,4.03
2023-03-31T10:34:43.827Z,3.72
2023-03-31T10:37:51.160Z,4.08
2023-03-31T10:41:00.359Z,4.08
2023-03-31T10:44:12.281Z,4.28
2023-03-31T10:47:32.909Z,3.35
2023-03-31T10:50:46.896Z,4.08
2023-03-31T10:53:59.405Z,3.85
2023-03-31T10:57:16.876Z,3.35
2023-03-31T11:00:30.558Z,4.58
2023-03-31T11:03:47.108Z,3.90
2023-03-31T11:07:09.029Z,3.52
2023-03-31T11:10:19.114Z,4.08
2023-03-31T11:13:44.457Z,3.95
2023-03-31T11:17:19.787Z,3.83
2023-03-31T11:20:54.840Z,3.92
2023-03-31T11:24:17.396Z,3.58
2023-03-31T11:27:52.988Z,3.27
2023-03-31T11:31:28.154Z,2.80
2023-03-31T11:35:10.913Z,2.87
2023-03-31T11:38:54.609Z,2.65
2023-03-31T11:42:05.006Z,3.00
2023-03-31T11:45:15.739Z,3.25
2023-03-31T11:51:42.452Z,3.00
2023-03-31T11:55:12.573Z,3.37
2023-03-31T11:58:40.014Z,3.40
2023-03-31T12:02:09.227Z,3.55
2023-03-31T12:05:15.265Z,3.58
2023-03-31T12:08:41.895Z,3.25
2023-03-31T12:12:17.005Z,3.52
2023-03-31T12:15:48.439Z,3.42
2023-03-31T12:19:16.044Z,3.35
2023-03-31T12:22:41.748Z,3.17
2023-03-31T12:26:23.207Z,3.25
2023-03-31T12:29:47.790Z,3.40
2023-03-31T12:33:01.058Z,3.27
2023-03-31T12:36:12.852Z,3.15
2023-03-31T12:39:55.553Z,3.52
2023-03-31T12:43:14.488Z,3.90
2023-03-31T12:46:59.312Z,4.00
2023-03-31T12:50:20.495Z,3.52
2023-03-31T12:53:42.636Z,4.35
2023-03-31T12:57:23.614Z,4.25
2023-03-31T13:00:40.956Z,3.90
2023-03-31T13:04:06.546Z,4.25
2023-03-31T13:07:27.318Z,3.75
2023-03-31T13:10:31.076Z,3.87
2023-03-31T13:13:44.927Z,4.03
2023-03-31T13:16:46.884Z,3.70
2023-03-31T13:19:54.576Z,4.10
2023-03-31T13:23:03.797Z,4.53
2023-03-31T13:26:13.756Z,4.12
2023-03-31T13:29:33.274Z,4.85
2023-03-31T13:32:40.022Z,4.53
2023-03-31T13:35:46.005Z,4.78
2023-03-31T13:39:19.499Z,4.80
2023-03-31T13:43:06.866Z,4.60
2023-03-31T13:46:50.788Z,4.20
2023-03-31T13:50:26.596Z,4.92
2023-03-31T13:54:17.362Z,4.45
2023-03-31T13:58:00.201Z,4.65
2023-03-31T14:01:20.334Z,4.15
2023-03-31T14:04:43.098Z,4.17
2023-03-31T14:08:04.646Z,4.42
2023-03-31T14:11:31.842Z,3.60
2023-03-31T14:14:38.432Z,4.10
2023-03-31T14:17:54.430Z,3.50
2023-03-31T14:21:20.189Z,4.00
2023-03-31T14:24:52.321Z,4.53
2023-03-31T14:28:41.964Z,4.15
2023-03-31T14:31:54.129Z,3.20
2023-03-31T14:35:17.107Z,3.30
2023-03-31T14:38:28.283Z,2.90
2023-03-31T14:41:38.333Z,3.17
2023-03-31T14:44:43.527Z,3.17
2023-03-31T14:47:48.335Z,2.90
2023-03-31T14:50:53.479Z,2.67
2023-03-31T14:53:58.810Z,2.83
2023-03-31T14:57:11.397Z,2.60
2023-03-31T15:00:19.321Z,2.60
2023-03-31T15:03:28.156Z,3.02
2023-03-31T15:06:34.277Z,2.72
2023-03-31T15:09:45.352Z,3.30
2023-03-31T15:12:51.392Z,2.40
2023-03-31T15:15:58.680Z,3.15
2023-03-31T15:19:03.569Z,2.77
2023-03-31T15:22:14.613Z,3.05
2023-03-31T15:25:25.095Z,2.22
2023-03-31T15:28:31.196Z,2.80
2023-03-31T15:31:39.197Z,2.50
2023-03-31T15:34:46.565Z,2.95
2023-03-31T15:37:55.428Z,2.50
2023-03-31T15:41:10.093Z,2.60
2023-03-31T15:44:24.988Z,2.37
2023-03-31T15:47:45.538Z,2.70
2023-03-31T15:54:04.032Z,2.65
2023-03-31T15:57:12.469Z,2.33
2023-03-31T16:00:18.073Z,3.58
2023-03-31T16:03:35.915Z,2.70
2023-03-31T16:06:53.881Z,3.02
2023-03-31T16:10:09.009Z,2.80
2023-03-31T16:13:18.024Z,2.50
2023-03-31T16:16:29.335Z,3.15
2023-03-31T16:19:35.392Z,2.92
2023-03-31T16:22:46.300Z,2.72
2023-03-31T16:25:53.106Z,2.58
2023-03-31T16:29:04.563Z,2.85
2023-03-31T16:32:27.785Z,3.70
2023-03-31T16:35:33.444Z,4.92
2023-03-31T16:38:43.495Z,3.42
2023-03-31T16:41:49.742Z,4.05
2023-03-31T16:48:15.097Z,3.35
2023-03-31T16:51:12.753Z,5.70
2023-03-31T16:54:18.218Z,3.87
2023-03-31T16:57:24.208Z,4.05
2023-03-31T17:00:30.749Z,3.67
2023-03-31T17:03:37.871Z,3.45
2023-03-31T17:06:44.381Z,3.37
2023-03-31T17:09:49.909Z,4.75
2023-03-31T17:12:56.233Z,3.70
2023-03-31T17:16:16.946Z,3.67
2023-03-31T17:19:10.299Z,5.08
2023-03-31T17:22:15.144Z,4.83
2023-03-31T17:25:21.866Z,4.47
2023-03-31T17:28:28.570Z,4.70
2023-03-31T17:31:35.538Z,4.45
2023-03-31T17:34:41.224Z,4.83
2023-03-31T17:37:46.988Z,4.33
2023-03-31T17:40:53.605Z,4.53
2023-03-31T17:44:02.391Z,4.10
2023-03-31T17:47:08.294Z,5.15
2023-03-31T17:50:14.988Z,5.47
2023-03-31T17:53:21.162Z,4.95
2023-03-31T17:56:29.018Z,5.05
2023-03-31T17:59:34.221Z,4.67
2023-03-31T18:02:40.825Z,4.15
2023-03-31T18:05:41.395Z,4.37
2023-03-31T18:08:49.141Z,4.15
2023-03-31T18:11:54.192Z,4.62
2023-03-31T18:15:02.501Z,4.00
2023-03-31T18:18:08.640Z,4.72
2023-03-31T18:21:22.714Z,4.58
2023-03-31T18:24:27.302Z,4.83
2023-03-31T18:27:33.366Z,4.17
2023-03-31T18:30:38.580Z,3.98
2023-03-31T18:33:45.308Z,4.92
2023-03-31T18:36:52.847Z,3.80
2023-03-31T18:39:59.429Z,4.00
2023-03-31T18:43:05.577Z,4.28
2023-03-31T18:46:11.479Z,5.75
2023-03-31T18:49:16.884Z,4.28
2023-03-31T18:52:23.501Z,4.60
2023-03-31T18:55:29.585Z,3.40
2023-03-31T18:58:36.424Z,4.90
2023-03-31T19:01:44.756Z,3.67
2023-03-31T19:04:51.705Z,4.78
2023-03-31T19:07:51.798Z,4.03
2023-03-31T19:10:57.808Z,4.60
2023-03-31T19:14:03.875Z,4.35
2023-03-31T19:17:10.510Z,4.75
2023-03-31T19:20:18.963Z,4.35
2023-03-31T19:23:25.248Z,3.77
2023-03-31T19:26:31.699Z,4.33
2023-03-31T19:29:38.878Z,4.45
2023-03-31T19:32:45.293Z,4.83
2023-03-31T19:35:52.490Z,4.40
2023-03-31T19:38:59.392Z,4.50
2023-03-31T19:42:04.049Z,4.30
2023-03-31T19:45:09.977Z,4.20
2023-03-31T19:48:16.890Z,5.10
2023-03-31T19:51:25.841Z,4.30
2023-03-31T19:54:32.219Z,4.12
2023-03-31T19:57:38.237Z,4.15
2023-03-31T20:00:44.039Z,4.50
2023-03-31T20:03:51.836Z,4.67
2023-03-31T20:07:00.102Z,4.92
2023-03-31T20:10:06.040Z,4.95
2023-03-31T20:13:12.326Z,4.65
2023-03-31T20:16:24.059Z,4.15
2023-03-31T20:19:30.691Z,4.45
2023-03-31T20:22:29.879Z,4.10
2023-03-31T20:25:36.094Z,3.83
2023-03-31T20:28:41.109Z,5.03
2023-03-31T20:31:48.563Z,4.30
2023-03-31T20:34:53.595Z,4.80
2023-03-31T20:37:59.444Z,3.80
2023-03-31T20:41:07.327Z,4.65
2023-03-31T20:44:14.779Z,4.33
2023-03-31T20:47:20.910Z,4.50
2023-03-31T20:50:28.425Z,5.62
2023-03-31T20:53:33.467Z,5.25
2023-03-31T20:56:43.673Z,6.60
2023-03-31T20:59:50.190Z,5.08
2023-03-31T21:02:55.812Z,6.28
2023-03-31T21:06:01.155Z,6.53
2023-03-31T21:09:07.137Z,6.65
2023-03-31T21:12:12.035Z,5.87
2023-03-31T21:15:17.637Z,6.17
2023-03-31T21:18:24.568Z,6.33
2023-03-31T21:21:32.200Z,4.65
2023-03-31T21:24:37.986Z,4.50
2023-03-31T21:27:43.332Z,4.30
2023-03-31T21:30:48.305Z,3.70
2023-03-31T21:33:55.614Z,3.83
2023-03-31T21:37:02.054Z,3.77
2023-03-31T21:40:08.120Z,3.87
2023-03-31T21:43:13.687Z,4.67
2023-03-31T21:46:18.585Z,5.10
2023-03-31T21:49:25.103Z,4.70
2023-03-31T21:52:31.777Z,4.60
2023-03-31T21:55:36.941Z,6.33
2023-03-31T21:58:43.592Z,4.55
2023-03-31T22:01:48.430Z,4.62
2023-03-31T22:04:54.129Z,4.90
2023-03-31T22:07:59.880Z,4.22
2023-03-31T22:11:06.640Z,4.28
2023-03-31T22:14:12.859Z,4.92
2023-03-31T22:17:18.411Z,4.17
2023-03-31T22:20:24.563Z,4.45
2023-03-31T22:23:29.489Z,4.95
2023-03-31T22:26:36.190Z,4.92
2023-03-31T22:29:42.360Z,4.08
2023-03-31T22:32:46.835Z,3.62
2023-03-31T22:35:52.538Z,3.40
2023-03-31T22:38:52.312Z,3.58
2023-03-31T22:41:58.861Z,4.28
2023-03-31T22:45:04.050Z,3.85
2023-03-31T22:48:10.509Z,3.58
2023-03-31T22:51:20.058Z,3.87
2023-03-31T22:54:30.412Z,4.33
2023-03-31T22:57:37.257Z,4.12
2023-03-31T23:00:43.260Z,4.25
2023-03-31T23:03:50.286Z,3.95
2023-03-31T23:06:57.680Z,3.85
2023-03-31T23:10:03.549Z,5.10
2023-03-31T23:13:10.227Z,4.25
2023-03-31T23:16:24.006Z,3.83
2023-03-31T23:19:29.679Z,3.52
2023-03-31T23:22:36.607Z,3.98
2023-03-31T23:25:42.537Z,5.85
2023-03-31T23:28:54.087Z,6.33
2023-03-31T23:31:59.829Z,5.05
2023-03-31T23:35:05.322Z,3.58
2023-03-31T23:38:11.160Z,3.60
2023-03-31T23:41:17.302Z,3.45
2023-03-31T23:44:23.903Z,3.30
2023-03-31T23:47:29.677Z,3.10
2023-03-31T23:50:35.711Z,3.12
2023-03-31T23:53:40.798Z,3.40
2023-03-31T23:56:48.261Z,5.08
2023-03-31T23:59:53.945Z,3.62
